sensor_id;sensor_type;location;lat;lon;timestamp;P1;durP1;ratioP1;P2;durP2;ratioP2
50309;SDS011;36207;51.850;21.698;2023-02-13T00:00:14;39.30;;;20.80;;
50309;SDS011;36207;51.850;21.698;2023-02-13T00:03:03;36.90;;;19.60;;
50309;SDS011;36207;51.850;21.698;2023-02-13T00:05:29;35.30;;;19.20;;
50309;SDS011;36207;51.850;21.698;2023-02-13T00:07:55;42.60;;;20.50;;
50309;SDS011;36207;51.850;21.698;2023-02-13T00:10:21;37.30;;;19.90;;
50309;SDS011;36207;51.850;21.698;2023-02-13T00:12:47;40.90;;;20.10;;
50309;SDS011;36207;51.850;21.698;2023-02-13T00:15:13;36.40;;;19.10;;
50309;SDS011;36207;51.850;21.698;2023-02-13T00:17:39;36.90;;;19.10;;
50309;SDS011;36207;51.850;21.698;2023-02-13T00:20:05;38.20;;;20.50;;
50309;SDS011;36207;51.850;21.698;2023-02-13T00:22:35;42.00;;;20.50;;
50309;SDS011;36207;51.850;21.698;2023-02-13T00:25:02;37.30;;;19.90;;
50309;SDS011;36207;51.850;21.698;2023-02-13T00:27:30;42.30;;;20.50;;
50309;SDS011;36207;51.850;21.698;2023-02-13T00:29:56;38.70;;;19.30;;
50309;SDS011;36207;51.850;21.698;2023-02-13T00:32:21;44.70;;;20.70;;
50309;SDS011;36207;51.850;21.698;2023-02-13T00:34:47;40.50;;;20.30;;
50309;SDS011;36207;51.850;21.698;2023-02-13T00:37:13;42.40;;;21.20;;
50309;SDS011;36207;51.850;21.698;2023-02-13T00:39:40;41.80;;;20.20;;
50309;SDS011;36207;51.850;21.698;2023-02-13T00:42:06;41.20;;;20.60;;
50309;SDS011;36207;51.850;21.698;2023-02-13T00:44:32;41.50;;;20.00;;
50309;SDS011;36207;51.850;21.698;2023-02-13T00:46:58;39.90;;;20.40;;
50309;SDS011;36207;51.850;21.698;2023-02-13T00:49:24;41.70;;;21.40;;
50309;SDS011;36207;51.850;21.698;2023-02-13T00:51:50;48.90;;;21.20;;
50309;SDS011;36207;51.850;21.698;2023-02-13T00:54:16;42.20;;;21.40;;
50309;SDS011;36207;51.850;21.698;2023-02-13T00:56:42;50.50;;;21.40;;
50309;SDS011;36207;51.850;21.698;2023-02-13T00:59:08;46.70;;;21.50;;
50309;SDS011;36207;51.850;21.698;2023-02-13T01:01:34;43.20;;;21.90;;
50309;SDS011;36207;51.850;21.698;2023-02-13T01:04:00;43.50;;;22.00;;
50309;SDS011;36207;51.850;21.698;2023-02-13T01:06:26;45.60;;;21.50;;
50309;SDS011;36207;51.850;21.698;2023-02-13T01:08:52;47.90;;;23.00;;
50309;SDS011;36207;51.850;21.698;2023-02-13T01:11:18;43.70;;;21.80;;
50309;SDS011;36207;51.850;21.698;2023-02-13T01:13:44;48.00;;;23.40;;
50309;SDS011;36207;51.850;21.698;2023-02-13T01:16:11;49.70;;;22.40;;
50309;SDS011;36207;51.850;21.698;2023-02-13T01:18:37;45.50;;;22.90;;
50309;SDS011;36207;51.850;21.698;2023-02-13T01:21:06;52.90;;;23.60;;
50309;SDS011;36207;51.850;21.698;2023-02-13T01:23:34;50.80;;;23.70;;
50309;SDS011;36207;51.850;21.698;2023-02-13T01:26:03;53.10;;;24.90;;
50309;SDS011;36207;51.850;21.698;2023-02-13T01:28:30;51.80;;;23.30;;
50309;SDS011;36207;51.850;21.698;2023-02-13T01:30:56;46.50;;;22.80;;
50309;SDS011;36207;51.850;21.698;2023-02-13T01:33:23;52.40;;;24.40;;
50309;SDS011;36207;51.850;21.698;2023-02-13T01:35:51;50.40;;;23.90;;
50309;SDS011;36207;51.850;21.698;2023-02-13T01:38:18;48.60;;;23.80;;
50309;SDS011;36207;51.850;21.698;2023-02-13T01:40:45;49.30;;;23.80;;
50309;SDS011;36207;51.850;21.698;2023-02-13T01:43:15;49.90;;;23.30;;
50309;SDS011;36207;51.850;21.698;2023-02-13T01:45:41;58.80;;;25.30;;
50309;SDS011;36207;51.850;21.698;2023-02-13T01:48:22;52.00;;;23.30;;
50309;SDS011;36207;51.850;21.698;2023-02-13T01:51:00;46.80;;;23.00;;
50309;SDS011;36207;51.850;21.698;2023-02-13T01:53:35;48.40;;;23.40;;
50309;SDS011;36207;51.850;21.698;2023-02-13T01:56:12;48.60;;;22.60;;
50309;SDS011;36207;51.850;21.698;2023-02-13T01:58:45;44.20;;;22.90;;
50309;SDS011;36207;51.850;21.698;2023-02-13T02:01:15;52.10;;;23.50;;
50309;SDS011;36207;51.850;21.698;2023-02-13T02:03:43;51.90;;;23.50;;
50309;SDS011;36207;51.850;21.698;2023-02-13T02:06:25;50.70;;;24.20;;
50309;SDS011;36207;51.850;21.698;2023-02-13T02:08:56;48.50;;;22.70;;
50309;SDS011;36207;51.850;21.698;2023-02-13T02:11:31;46.50;;;23.40;;
50309;SDS011;36207;51.850;21.698;2023-02-13T02:14:02;46.90;;;23.70;;
50309;SDS011;36207;51.850;21.698;2023-02-13T02:16:28;46.60;;;23.90;;
50309;SDS011;36207;51.850;21.698;2023-02-13T02:18:57;52.20;;;23.00;;
50309;SDS011;36207;51.850;21.698;2023-02-13T02:22:09;47.20;;;24.10;;
50309;SDS011;36207;51.850;21.698;2023-02-13T02:24:41;48.90;;;22.80;;
50309;SDS011;36207;51.850;21.698;2023-02-13T02:30:07;45.70;;;22.70;;
50309;SDS011;36207;51.850;21.698;2023-02-13T02:35:45;42.60;;;22.60;;
50309;SDS011;36207;51.850;21.698;2023-02-13T02:43:38;47.30;;;22.30;;
50309;SDS011;36207;51.850;21.698;2023-02-13T02:46:17;44.20;;;21.50;;
50309;SDS011;36207;51.850;21.698;2023-02-13T02:48:49;47.60;;;22.30;;
50309;SDS011;36207;51.850;21.698;2023-02-13T02:54:46;46.80;;;22.80;;
50309;SDS011;36207;51.850;21.698;2023-02-13T02:57:44;45.40;;;21.20;;
50309;SDS011;36207;51.850;21.698;2023-02-13T03:00:34;42.70;;;21.70;;
50309;SDS011;36207;51.850;21.698;2023-02-13T03:03:39;44.30;;;22.70;;
50309;SDS011;36207;51.850;21.698;2023-02-13T03:06:26;45.00;;;21.00;;
50309;SDS011;36207;51.850;21.698;2023-02-13T03:09:01;45.30;;;21.60;;
50309;SDS011;36207;51.850;21.698;2023-02-13T03:11:50;42.60;;;21.40;;
50309;SDS011;36207;51.850;21.698;2023-02-13T03:14:37;41.30;;;20.40;;
50309;SDS011;36207;51.850;21.698;2023-02-13T03:17:04;37.30;;;20.20;;
50309;SDS011;36207;51.850;21.698;2023-02-13T03:25:37;44.40;;;20.80;;
50309;SDS011;36207;51.850;21.698;2023-02-13T03:32:07;41.20;;;19.90;;
50309;SDS011;36207;51.850;21.698;2023-02-13T03:34:51;42.40;;;20.40;;
50309;SDS011;36207;51.850;21.698;2023-02-13T03:37:45;38.20;;;19.70;;
50309;SDS011;36207;51.850;21.698;2023-02-13T03:43:44;41.20;;;19.10;;
50309;SDS011;36207;51.850;21.698;2023-02-13T03:46:15;40.50;;;20.00;;
50309;SDS011;36207;51.850;21.698;2023-02-13T03:48:43;38.10;;;18.40;;
50309;SDS011;36207;51.850;21.698;2023-02-13T03:54:16;36.80;;;17.90;;
50309;SDS011;36207;51.850;21.698;2023-02-13T03:57:07;36.90;;;17.90;;
50309;SDS011;36207;51.850;21.698;2023-02-13T03:59:54;36.60;;;17.40;;
50309;SDS011;36207;51.850;21.698;2023-02-13T04:02:24;33.00;;;17.10;;
50309;SDS011;36207;51.850;21.698;2023-02-13T04:05:01;34.00;;;17.10;;
50309;SDS011;36207;51.850;21.698;2023-02-13T04:07:33;34.00;;;17.00;;
50309;SDS011;36207;51.850;21.698;2023-02-13T04:10:04;33.60;;;17.20;;
50309;SDS011;36207;51.850;21.698;2023-02-13T04:15:23;33.70;;;16.80;;
50309;SDS011;36207;51.850;21.698;2023-02-13T04:20:48;31.80;;;16.00;;
50309;SDS011;36207;51.850;21.698;2023-02-13T04:23:14;32.60;;;15.80;;
50309;SDS011;36207;51.850;21.698;2023-02-13T04:25:41;31.20;;;15.80;;
50309;SDS011;36207;51.850;21.698;2023-02-13T04:28:09;30.40;;;16.00;;
50309;SDS011;36207;51.850;21.698;2023-02-13T04:30:35;34.10;;;16.90;;
50309;SDS011;36207;51.850;21.698;2023-02-13T04:33:02;33.20;;;16.10;;
50309;SDS011;36207;51.850;21.698;2023-02-13T04:35:29;30.00;;;16.40;;
50309;SDS011;36207;51.850;21.698;2023-02-13T04:37:55;30.70;;;15.50;;
50309;SDS011;36207;51.850;21.698;2023-02-13T04:40:21;29.80;;;15.10;;
50309;SDS011;36207;51.850;21.698;2023-02-13T04:42:47;34.30;;;15.60;;
50309;SDS011;36207;51.850;21.698;2023-02-13T04:45:13;35.60;;;16.20;;
50309;SDS011;36207;51.850;21.698;2023-02-13T04:47:39;32.90;;;15.70;;
50309;SDS011;36207;51.850;21.698;2023-02-13T04:50:06;26.40;;;15.40;;
50309;SDS011;36207;51.850;21.698;2023-02-13T04:52:32;28.90;;;16.20;;
50309;SDS011;36207;51.850;21.698;2023-02-13T04:54:58;31.00;;;16.00;;
50309;SDS011;36207;51.850;21.698;2023-02-13T04:57:24;29.30;;;15.80;;
50309;SDS011;36207;51.850;21.698;2023-02-13T04:59:50;28.70;;;14.90;;
50309;SDS011;36207;51.850;21.698;2023-02-13T05:02:16;30.50;;;15.40;;
50309;SDS011;36207;51.850;21.698;2023-02-13T05:04:42;30.00;;;15.30;;
50309;SDS011;36207;51.850;21.698;2023-02-13T05:07:07;32.60;;;15.10;;
50309;SDS011;36207;51.850;21.698;2023-02-13T05:09:33;29.10;;;14.50;;
50309;SDS011;36207;51.850;21.698;2023-02-13T05:11:59;30.30;;;15.00;;
50309;SDS011;36207;51.850;21.698;2023-02-13T05:14:26;29.30;;;14.80;;
50309;SDS011;36207;51.850;21.698;2023-02-13T05:16:51;32.20;;;15.20;;
50309;SDS011;36207;51.850;21.698;2023-02-13T05:19:17;26.60;;;13.80;;
50309;SDS011;36207;51.850;21.698;2023-02-13T05:21:43;26.10;;;14.50;;
50309;SDS011;36207;51.850;21.698;2023-02-13T05:24:28;28.10;;;14.50;;
50309;SDS011;36207;51.850;21.698;2023-02-13T05:26:54;30.50;;;14.50;;
50309;SDS011;36207;51.850;21.698;2023-02-13T05:29:20;30.30;;;13.80;;
50309;SDS011;36207;51.850;21.698;2023-02-13T05:31:49;28.70;;;14.10;;
50309;SDS011;36207;51.850;21.698;2023-02-13T05:34:15;26.70;;;14.30;;
50309;SDS011;36207;51.850;21.698;2023-02-13T05:36:41;28.50;;;14.10;;
50309;SDS011;36207;51.850;21.698;2023-02-13T05:39:08;25.30;;;13.50;;
50309;SDS011;36207;51.850;21.698;2023-02-13T05:41:33;27.40;;;13.80;;
50309;SDS011;36207;51.850;21.698;2023-02-13T05:43:59;32.30;;;16.20;;
50309;SDS011;36207;51.850;21.698;2023-02-13T05:46:25;26.20;;;15.00;;
50309;SDS011;36207;51.850;21.698;2023-02-13T05:48:51;28.20;;;13.60;;
50309;SDS011;36207;51.850;21.698;2023-02-13T05:51:18;27.20;;;14.10;;
50309;SDS011;36207;51.850;21.698;2023-02-13T05:53:44;28.70;;;14.70;;
50309;SDS011;36207;51.850;21.698;2023-02-13T05:56:10;25.20;;;13.90;;
50309;SDS011;36207;51.850;21.698;2023-02-13T05:58:36;26.20;;;13.60;;
50309;SDS011;36207;51.850;21.698;2023-02-13T06:01:02;25.80;;;13.50;;
50309;SDS011;36207;51.850;21.698;2023-02-13T06:03:29;24.00;;;13.90;;
50309;SDS011;36207;51.850;21.698;2023-02-13T06:05:56;26.80;;;14.00;;
50309;SDS011;36207;51.850;21.698;2023-02-13T06:08:22;22.20;;;12.90;;
50309;SDS011;36207;51.850;21.698;2023-02-13T06:10:49;29.40;;;13.70;;
50309;SDS011;36207;51.850;21.698;2023-02-13T06:13:15;25.80;;;13.00;;
50309;SDS011;36207;51.850;21.698;2023-02-13T06:15:42;26.60;;;13.40;;
50309;SDS011;36207;51.850;21.698;2023-02-13T06:18:08;25.80;;;13.70;;
50309;SDS011;36207;51.850;21.698;2023-02-13T06:20:35;26.30;;;13.00;;
50309;SDS011;36207;51.850;21.698;2023-02-13T06:23:01;25.20;;;13.70;;
50309;SDS011;36207;51.850;21.698;2023-02-13T06:25:29;24.60;;;13.40;;
50309;SDS011;36207;51.850;21.698;2023-02-13T06:27:55;26.40;;;13.80;;
50309;SDS011;36207;51.850;21.698;2023-02-13T06:30:21;25.20;;;13.30;;
50309;SDS011;36207;51.850;21.698;2023-02-13T06:32:47;25.40;;;13.50;;
50309;SDS011;36207;51.850;21.698;2023-02-13T06:35:14;24.80;;;13.90;;
50309;SDS011;36207;51.850;21.698;2023-02-13T06:37:40;34.10;;;15.20;;
50309;SDS011;36207;51.850;21.698;2023-02-13T06:40:08;26.80;;;14.10;;
50309;SDS011;36207;51.850;21.698;2023-02-13T06:42:36;28.30;;;14.40;;
50309;SDS011;36207;51.850;21.698;2023-02-13T06:45:02;25.80;;;14.50;;
50309;SDS011;36207;51.850;21.698;2023-02-13T06:47:28;26.40;;;15.20;;
50309;SDS011;36207;51.850;21.698;2023-02-13T06:49:54;23.90;;;13.50;;
50309;SDS011;36207;51.850;21.698;2023-02-13T06:52:20;30.30;;;14.90;;
50309;SDS011;36207;51.850;21.698;2023-02-13T06:54:46;29.60;;;14.90;;
50309;SDS011;36207;51.850;21.698;2023-02-13T06:57:12;30.00;;;15.10;;
50309;SDS011;36207;51.850;21.698;2023-02-13T06:59:38;26.70;;;14.00;;
50309;SDS011;36207;51.850;21.698;2023-02-13T07:02:04;27.10;;;14.30;;
50309;SDS011;36207;51.850;21.698;2023-02-13T07:04:30;24.90;;;13.50;;
50309;SDS011;36207;51.850;21.698;2023-02-13T07:06:56;26.00;;;14.10;;
50309;SDS011;36207;51.850;21.698;2023-02-13T07:09:22;25.10;;;13.70;;
50309;SDS011;36207;51.850;21.698;2023-02-13T07:11:49;26.00;;;14.30;;
50309;SDS011;36207;51.850;21.698;2023-02-13T07:14:15;31.10;;;15.30;;
50309;SDS011;36207;51.850;21.698;2023-02-13T07:16:41;31.00;;;14.90;;
50309;SDS011;36207;51.850;21.698;2023-02-13T07:19:07;28.50;;;13.60;;
50309;SDS011;36207;51.850;21.698;2023-02-13T07:21:33;26.90;;;14.50;;
50309;SDS011;36207;51.850;21.698;2023-02-13T07:23:59;24.30;;;13.60;;
50309;SDS011;36207;51.850;21.698;2023-02-13T07:26:25;26.10;;;13.70;;
50309;SDS011;36207;51.850;21.698;2023-02-13T07:28:51;25.20;;;13.40;;
50309;SDS011;36207;51.850;21.698;2023-02-13T07:31:18;26.40;;;13.90;;
50309;SDS011;36207;51.850;21.698;2023-02-13T07:33:47;25.70;;;14.10;;
50309;SDS011;36207;51.850;21.698;2023-02-13T07:36:14;24.60;;;13.20;;
50309;SDS011;36207;51.850;21.698;2023-02-13T07:38:40;25.30;;;13.30;;
50309;SDS011;36207;51.850;21.698;2023-02-13T07:41:06;25.20;;;13.30;;
50309;SDS011;36207;51.850;21.698;2023-02-13T07:43:32;25.50;;;13.40;;
50309;SDS011;36207;51.850;21.698;2023-02-13T07:45:59;24.90;;;12.70;;
50309;SDS011;36207;51.850;21.698;2023-02-13T07:48:26;25.80;;;13.00;;
50309;SDS011;36207;51.850;21.698;2023-02-13T07:50:53;22.80;;;12.80;;
50309;SDS011;36207;51.850;21.698;2023-02-13T07:53:24;23.70;;;13.10;;
50309;SDS011;36207;51.850;21.698;2023-02-13T07:55:50;21.80;;;12.00;;
50309;SDS011;36207;51.850;21.698;2023-02-13T07:58:15;22.60;;;12.70;;
50309;SDS011;36207;51.850;21.698;2023-02-13T08:00:42;26.80;;;12.60;;
50309;SDS011;36207;51.850;21.698;2023-02-13T08:03:08;21.70;;;12.40;;
50309;SDS011;36207;51.850;21.698;2023-02-13T08:05:34;23.80;;;12.30;;
50309;SDS011;36207;51.850;21.698;2023-02-13T08:08:01;22.60;;;12.10;;
50309;SDS011;36207;51.850;21.698;2023-02-13T08:10:27;21.60;;;11.70;;
50309;SDS011;36207;51.850;21.698;2023-02-13T08:13:12;22.20;;;11.20;;
50309;SDS011;36207;51.850;21.698;2023-02-13T08:15:40;20.40;;;11.40;;
50309;SDS011;36207;51.850;21.698;2023-02-13T08:18:06;23.30;;;10.90;;
50309;SDS011;36207;51.850;21.698;2023-02-13T08:20:32;21.60;;;11.40;;
50309;SDS011;36207;51.850;21.698;2023-02-13T08:23:01;20.30;;;11.20;;
50309;SDS011;36207;51.850;21.698;2023-02-13T08:25:29;19.20;;;10.10;;
50309;SDS011;36207;51.850;21.698;2023-02-13T08:27:55;19.40;;;10.10;;
50309;SDS011;36207;51.850;21.698;2023-02-13T08:30:21;21.20;;;10.30;;
50309;SDS011;36207;51.850;21.698;2023-02-13T08:32:47;21.00;;;10.20;;
50309;SDS011;36207;51.850;21.698;2023-02-13T08:35:12;17.70;;;10.00;;
50309;SDS011;36207;51.850;21.698;2023-02-13T08:37:39;18.40;;;9.30;;
50309;SDS011;36207;51.850;21.698;2023-02-13T08:40:05;18.40;;;10.10;;
50309;SDS011;36207;51.850;21.698;2023-02-13T08:42:35;19.90;;;10.40;;
50309;SDS011;36207;51.850;21.698;2023-02-13T08:45:02;20.20;;;10.10;;
50309;SDS011;36207;51.850;21.698;2023-02-13T08:47:28;20.80;;;10.40;;
50309;SDS011;36207;51.850;21.698;2023-02-13T08:49:54;18.90;;;9.20;;
50309;SDS011;36207;51.850;21.698;2023-02-13T08:52:20;19.80;;;8.60;;
50309;SDS011;36207;51.850;21.698;2023-02-13T08:54:47;15.40;;;8.50;;
50309;SDS011;36207;51.850;21.698;2023-02-13T08:57:12;17.10;;;8.80;;
50309;SDS011;36207;51.850;21.698;2023-02-13T08:59:38;14.00;;;8.10;;
50309;SDS011;36207;51.850;21.698;2023-02-13T09:02:05;13.00;;;8.10;;
50309;SDS011;36207;51.850;21.698;2023-02-13T09:04:31;13.80;;;8.00;;
50309;SDS011;36207;51.850;21.698;2023-02-13T09:06:57;17.30;;;8.50;;
50309;SDS011;36207;51.850;21.698;2023-02-13T09:09:23;13.50;;;7.70;;
50309;SDS011;36207;51.850;21.698;2023-02-13T09:11:49;16.90;;;9.30;;
50309;SDS011;36207;51.850;21.698;2023-02-13T09:14:16;16.50;;;9.00;;
50309;SDS011;36207;51.850;21.698;2023-02-13T09:16:42;17.90;;;8.80;;
50309;SDS011;36207;51.850;21.698;2023-02-13T09:19:07;13.80;;;8.40;;
50309;SDS011;36207;51.850;21.698;2023-02-13T09:21:33;13.30;;;7.80;;
50309;SDS011;36207;51.850;21.698;2023-02-13T09:23:59;13.70;;;7.70;;
50309;SDS011;36207;51.850;21.698;2023-02-13T09:26:25;13.20;;;7.20;;
50309;SDS011;36207;51.850;21.698;2023-02-13T09:28:51;12.30;;;6.80;;
50309;SDS011;36207;51.850;21.698;2023-02-13T09:31:18;11.80;;;6.60;;
50309;SDS011;36207;51.850;21.698;2023-02-13T09:33:47;12.00;;;6.10;;
50309;SDS011;36207;51.850;21.698;2023-02-13T09:36:15;13.60;;;6.60;;
50309;SDS011;36207;51.850;21.698;2023-02-13T09:38:46;11.20;;;6.60;;
50309;SDS011;36207;51.850;21.698;2023-02-13T09:44:12;13.00;;;5.70;;
50309;SDS011;36207;51.850;21.698;2023-02-13T09:47:05;9.70;;;5.30;;
50309;SDS011;36207;51.850;21.698;2023-02-13T09:49:45;9.70;;;5.70;;
50309;SDS011;36207;51.850;21.698;2023-02-13T09:52:21;11.70;;;6.20;;
50309;SDS011;36207;51.850;21.698;2023-02-13T09:54:47;11.10;;;5.90;;
50309;SDS011;36207;51.850;21.698;2023-02-13T09:57:19;13.10;;;6.10;;
50309;SDS011;36207;51.850;21.698;2023-02-13T09:59:56;11.40;;;6.00;;
50309;SDS011;36207;51.850;21.698;2023-02-13T10:05:41;10.80;;;6.30;;
50309;SDS011;36207;51.850;21.698;2023-02-13T10:17:00;10.50;;;6.40;;
50309;SDS011;36207;51.850;21.698;2023-02-13T10:22:11;11.90;;;7.00;;
50309;SDS011;36207;51.850;21.698;2023-02-13T10:24:43;15.30;;;7.20;;
50309;SDS011;36207;51.850;21.698;2023-02-13T10:27:24;10.70;;;6.70;;
50309;SDS011;36207;51.850;21.698;2023-02-13T10:30:04;13.90;;;7.10;;
50309;SDS011;36207;51.850;21.698;2023-02-13T10:38:18;10.60;;;6.50;;
50309;SDS011;36207;51.850;21.698;2023-02-13T10:41:13;10.90;;;6.50;;
50309;SDS011;36207;51.850;21.698;2023-02-13T10:46:45;8.40;;;5.80;;
50309;SDS011;36207;51.850;21.698;2023-02-13T10:52:13;10.70;;;5.80;;
50309;SDS011;36207;51.850;21.698;2023-02-13T11:06:07;8.20;;;4.90;;
50309;SDS011;36207;51.850;21.698;2023-02-13T11:08:39;9.10;;;4.80;;
50309;SDS011;36207;51.850;21.698;2023-02-13T11:14:07;9.10;;;5.70;;
50309;SDS011;36207;51.850;21.698;2023-02-13T11:16:37;9.90;;;5.40;;
50309;SDS011;36207;51.850;21.698;2023-02-13T11:19:38;9.30;;;5.60;;
50309;SDS011;36207;51.850;21.698;2023-02-13T11:22:12;10.10;;;5.90;;
50309;SDS011;36207;51.850;21.698;2023-02-13T11:24:41;10.10;;;6.30;;
50309;SDS011;36207;51.850;21.698;2023-02-13T11:27:15;10.90;;;6.20;;
50309;SDS011;36207;51.850;21.698;2023-02-13T11:29:52;8.70;;;5.50;;
50309;SDS011;36207;51.850;21.698;2023-02-13T11:32:22;11.30;;;5.70;;
50309;SDS011;36207;51.850;21.698;2023-02-13T11:34:50;9.80;;;5.70;;
50309;SDS011;36207;51.850;21.698;2023-02-13T11:39:50;9.20;;;5.70;;
50309;SDS011;36207;51.850;21.698;2023-02-13T11:47:47;8.20;;;4.40;;
50309;SDS011;36207;51.850;21.698;2023-02-13T11:50:21;9.20;;;4.60;;
50309;SDS011;36207;51.850;21.698;2023-02-13T11:58:02;8.50;;;5.40;;
50309;SDS011;36207;51.850;21.698;2023-02-13T12:00:47;9.10;;;5.30;;
50309;SDS011;36207;51.850;21.698;2023-02-13T12:08:34;11.00;;;6.10;;
50309;SDS011;36207;51.850;21.698;2023-02-13T12:11:03;10.20;;;6.10;;
50309;SDS011;36207;51.850;21.698;2023-02-13T12:13:47;11.80;;;6.80;;
50309;SDS011;36207;51.850;21.698;2023-02-13T12:19:16;12.00;;;6.90;;
50309;SDS011;36207;51.850;21.698;2023-02-13T12:30:06;11.30;;;6.30;;
50309;SDS011;36207;51.850;21.698;2023-02-13T12:41:12;12.20;;;6.90;;
50309;SDS011;36207;51.850;21.698;2023-02-13T13:05:58;9.50;;;6.00;;
50309;SDS011;36207;51.850;21.698;2023-02-13T13:09:16;12.50;;;6.40;;
50309;SDS011;36207;51.850;21.698;2023-02-13T13:22:37;10.30;;;6.00;;
50309;SDS011;36207;51.850;21.698;2023-02-13T13:28:13;9.70;;;5.70;;
50309;SDS011;36207;51.850;21.698;2023-02-13T13:30:43;12.10;;;6.00;;
50309;SDS011;36207;51.850;21.698;2023-02-13T13:33:18;10.70;;;6.10;;
50309;SDS011;36207;51.850;21.698;2023-02-13T13:49:33;9.80;;;5.30;;
50309;SDS011;36207;51.850;21.698;2023-02-13T13:54:45;10.90;;;5.70;;
50309;SDS011;36207;51.850;21.698;2023-02-13T13:57:16;10.20;;;5.80;;
50309;SDS011;36207;51.850;21.698;2023-02-13T14:07:37;10.10;;;5.70;;
50309;SDS011;36207;51.850;21.698;2023-02-13T14:12:49;12.20;;;6.20;;
50309;SDS011;36207;51.850;21.698;2023-02-13T14:18:00;11.70;;;6.00;;
50309;SDS011;36207;51.850;21.698;2023-02-13T14:23:34;10.90;;;6.50;;
50309;SDS011;36207;51.850;21.698;2023-02-13T14:31:24;12.90;;;7.40;;
50309;SDS011;36207;51.850;21.698;2023-02-13T14:34:00;15.00;;;8.00;;
50309;SDS011;36207;51.850;21.698;2023-02-13T14:36:38;17.80;;;9.00;;
50309;SDS011;36207;51.850;21.698;2023-02-13T14:39:15;13.20;;;7.80;;
50309;SDS011;36207;51.850;21.698;2023-02-13T14:44:19;12.60;;;6.60;;
50309;SDS011;36207;51.850;21.698;2023-02-13T14:46:54;12.50;;;7.20;;
50309;SDS011;36207;51.850;21.698;2023-02-13T14:51:57;13.40;;;7.30;;
50309;SDS011;36207;51.850;21.698;2023-02-13T14:54:28;13.70;;;7.30;;
50309;SDS011;36207;51.850;21.698;2023-02-13T14:57:37;13.20;;;6.80;;
50309;SDS011;36207;51.850;21.698;2023-02-13T14:59:46;12.20;;;6.90;;
50309;SDS011;36207;51.850;21.698;2023-02-13T15:04:56;15.20;;;7.70;;
50309;SDS011;36207;51.850;21.698;2023-02-13T15:07:36;12.80;;;7.50;;
50309;SDS011;36207;51.850;21.698;2023-02-13T15:13:01;14.60;;;7.40;;
50309;SDS011;36207;51.850;21.698;2023-02-13T15:15:31;13.00;;;7.80;;
50309;SDS011;36207;51.850;21.698;2023-02-13T15:18:14;14.10;;;8.00;;
50309;SDS011;36207;51.850;21.698;2023-02-13T15:20:44;14.00;;;7.60;;
50309;SDS011;36207;51.850;21.698;2023-02-13T15:23:17;14.20;;;7.90;;
50309;SDS011;36207;51.850;21.698;2023-02-13T15:25:58;13.10;;;7.40;;
50309;SDS011;36207;51.850;21.698;2023-02-13T15:28:26;13.90;;;7.70;;
50309;SDS011;36207;51.850;21.698;2023-02-13T15:31:02;12.80;;;7.30;;
50309;SDS011;36207;51.850;21.698;2023-02-13T15:33:49;13.10;;;7.50;;
50309;SDS011;36207;51.850;21.698;2023-02-13T15:36:20;13.60;;;8.00;;
50309;SDS011;36207;51.850;21.698;2023-02-13T15:38:59;13.70;;;8.10;;
50309;SDS011;36207;51.850;21.698;2023-02-13T15:41:30;13.90;;;8.10;;
50309;SDS011;36207;51.850;21.698;2023-02-13T15:44:05;12.40;;;7.90;;
50309;SDS011;36207;51.850;21.698;2023-02-13T15:46:33;12.80;;;8.00;;
50309;SDS011;36207;51.850;21.698;2023-02-13T15:49:04;15.70;;;8.30;;
50309;SDS011;36207;51.850;21.698;2023-02-13T15:51:33;13.40;;;7.80;;
50309;SDS011;36207;51.850;21.698;2023-02-13T15:54:01;11.40;;;7.10;;
50309;SDS011;36207;51.850;21.698;2023-02-13T15:56:32;13.10;;;7.60;;
50309;SDS011;36207;51.850;21.698;2023-02-13T15:58:59;13.90;;;8.00;;
50309;SDS011;36207;51.850;21.698;2023-02-13T16:01:27;15.10;;;8.10;;
50309;SDS011;36207;51.850;21.698;2023-02-13T16:04:01;13.80;;;7.70;;
50309;SDS011;36207;51.850;21.698;2023-02-13T16:06:30;15.60;;;7.50;;
50309;SDS011;36207;51.850;21.698;2023-02-13T16:08:58;13.00;;;8.20;;
50309;SDS011;36207;51.850;21.698;2023-02-13T16:11:29;14.30;;;8.20;;
50309;SDS011;36207;51.850;21.698;2023-02-13T16:14:18;15.40;;;7.90;;
50309;SDS011;36207;51.850;21.698;2023-02-13T16:16:50;13.10;;;8.20;;
50309;SDS011;36207;51.850;21.698;2023-02-13T16:22:14;17.50;;;8.40;;
50309;SDS011;36207;51.850;21.698;2023-02-13T16:24:52;16.10;;;8.50;;
50309;SDS011;36207;51.850;21.698;2023-02-13T16:27:23;19.30;;;8.70;;
50309;SDS011;36207;51.850;21.698;2023-02-13T16:29:58;15.80;;;9.00;;
50309;SDS011;36207;51.850;21.698;2023-02-13T16:32:31;15.40;;;9.10;;
50309;SDS011;36207;51.850;21.698;2023-02-13T16:37:56;19.00;;;10.80;;
50309;SDS011;36207;51.850;21.698;2023-02-13T16:46:16;17.10;;;8.90;;
50309;SDS011;36207;51.850;21.698;2023-02-13T16:48:44;18.30;;;9.40;;
50309;SDS011;36207;51.850;21.698;2023-02-13T16:51:13;15.40;;;9.60;;
50309;SDS011;36207;51.850;21.698;2023-02-13T16:53:41;15.90;;;9.40;;
50309;SDS011;36207;51.850;21.698;2023-02-13T16:56:08;13.90;;;8.90;;
50309;SDS011;36207;51.850;21.698;2023-02-13T16:58:35;19.30;;;9.60;;
50309;SDS011;36207;51.850;21.698;2023-02-13T17:01:02;16.00;;;9.90;;
50309;SDS011;36207;51.850;21.698;2023-02-13T17:03:32;16.90;;;9.80;;
50309;SDS011;36207;51.850;21.698;2023-02-13T17:06:01;19.30;;;10.50;;
50309;SDS011;36207;51.850;21.698;2023-02-13T17:08:29;18.70;;;9.70;;
50309;SDS011;36207;51.850;21.698;2023-02-13T17:11:05;15.30;;;9.20;;
50309;SDS011;36207;51.850;21.698;2023-02-13T17:13:32;16.50;;;10.20;;
50309;SDS011;36207;51.850;21.698;2023-02-13T17:15:59;18.60;;;9.80;;
50309;SDS011;36207;51.850;21.698;2023-02-13T17:18:25;17.20;;;10.30;;
50309;SDS011;36207;51.850;21.698;2023-02-13T17:20:52;16.20;;;9.90;;
50309;SDS011;36207;51.850;21.698;2023-02-13T17:23:20;15.20;;;9.30;;
50309;SDS011;36207;51.850;21.698;2023-02-13T17:25:48;15.30;;;9.50;;
50309;SDS011;36207;51.850;21.698;2023-02-13T17:30:42;15.30;;;9.60;;
50309;SDS011;36207;51.850;21.698;2023-02-13T17:33:11;17.50;;;10.20;;
50309;SDS011;36207;51.850;21.698;2023-02-13T17:35:41;15.60;;;9.50;;
50309;SDS011;36207;51.850;21.698;2023-02-13T17:38:08;14.90;;;9.30;;
50309;SDS011;36207;51.850;21.698;2023-02-13T17:40:34;18.40;;;9.30;;
50309;SDS011;36207;51.850;21.698;2023-02-13T17:43:01;16.50;;;9.50;;
50309;SDS011;36207;51.850;21.698;2023-02-13T17:45:29;19.40;;;9.50;;
50309;SDS011;36207;51.850;21.698;2023-02-13T17:47:56;16.20;;;9.20;;
50309;SDS011;36207;51.850;21.698;2023-02-13T17:50:23;16.70;;;9.60;;
50309;SDS011;36207;51.850;21.698;2023-02-13T17:52:50;16.40;;;9.10;;
50309;SDS011;36207;51.850;21.698;2023-02-13T17:55:20;15.50;;;9.00;;
50309;SDS011;36207;51.850;21.698;2023-02-13T17:57:51;18.90;;;9.30;;
50309;SDS011;36207;51.850;21.698;2023-02-13T18:00:19;16.40;;;8.80;;
50309;SDS011;36207;51.850;21.698;2023-02-13T18:02:46;16.50;;;9.50;;
50309;SDS011;36207;51.850;21.698;2023-02-13T18:05:14;19.40;;;9.70;;
50309;SDS011;36207;51.850;21.698;2023-02-13T18:07:41;16.50;;;9.50;;
50309;SDS011;36207;51.850;21.698;2023-02-13T18:10:09;15.90;;;9.10;;